sim
Sign-in with your pilot id or email,
or register
Callsign
Passwort

Schedule Details

Flight Number: OEO1641
Departure: Gothenburg Landvetter Airport (ESGG) at 14:45
Arrival: Hamburg Airport (EDDH) at 16:00

Weather Information
Getting current METAR information for ESGG 251320Z 19014KT 9999 BKN007 11/10 Q0998
Getting current METAR information for EDDH 251320Z 19013KT 9999 -RA SCT033 15/10 Q1002 TEMPO 25010KT

Schedule Frequency

Route Map